sensor_id;sensor_type;location;lat;lon;timestamp;P1;durP1;ratioP1;P2;durP2;ratioP2
14778;SDS011;7481;53.750;10.570;2022-08-01T00:02:27;13.32;;;10.85;;
14778;SDS011;7481;53.750;10.570;2022-08-01T00:05:15;15.18;;;12.70;;
14778;SDS011;7481;53.750;10.570;2022-08-01T00:08:02;14.73;;;12.18;;
14778;SDS011;7481;53.750;10.570;2022-08-01T00:10:49;13.20;;;11.82;;
14778;SDS011;7481;53.750;10.570;2022-08-01T00:13:36;15.05;;;13.50;;
14778;SDS011;7481;53.750;10.570;2022-08-01T00:16:23;16.67;;;13.05;;
14778;SDS011;7481;53.750;10.570;2022-08-01T00:19:10;19.98;;;14.93;;
14778;SDS011;7481;53.750;10.570;2022-08-01T00:21:57;15.93;;;14.23;;
14778;SDS011;7481;53.750;10.570;2022-08-01T00:24:44;16.65;;;14.95;;
14778;SDS011;7481;53.750;10.570;2022-08-01T00:27:31;18.60;;;14.88;;
14778;SDS011;7481;53.750;10.570;2022-08-01T00:30:22;21.45;;;17.00;;
14778;SDS011;7481;53.750;10.570;2022-08-01T00:33:09;21.73;;;16.80;;
14778;SDS011;7481;53.750;10.570;2022-08-01T00:35:56;20.45;;;17.65;;
14778;SDS011;7481;53.750;10.570;2022-08-01T00:38:43;20.13;;;16.52;;
14778;SDS011;7481;53.750;10.570;2022-08-01T00:41:30;23.17;;;17.42;;
14778;SDS011;7481;53.750;10.570;2022-08-01T00:44:17;19.85;;;16.45;;
14778;SDS011;7481;53.750;10.570;2022-08-01T00:47:05;21.42;;;18.83;;
14778;SDS011;7481;53.750;10.570;2022-08-01T00:49:53;20.95;;;18.70;;
14778;SDS011;7481;53.750;10.570;2022-08-01T00:52:40;20.63;;;18.42;;
14778;SDS011;7481;53.750;10.570;2022-08-01T00:55:27;24.63;;;18.95;;
14778;SDS011;7481;53.750;10.570;2022-08-01T00:58:15;19.77;;;17.75;;
14778;SDS011;7481;53.750;10.570;2022-08-01T01:01:03;20.92;;;18.40;;
14778;SDS011;7481;53.750;10.570;2022-08-01T01:03:54;19.80;;;17.65;;
14778;SDS011;7481;53.750;10.570;2022-08-01T01:06:55;21.95;;;18.67;;
14778;SDS011;7481;53.750;10.570;2022-08-01T01:13:04;23.88;;;18.17;;
14778;SDS011;7481;53.750;10.570;2022-08-01T01:16:01;19.85;;;16.40;;
14778;SDS011;7481;53.750;10.570;2022-08-01T01:18:55;21.50;;;16.48;;
14778;SDS011;7481;53.750;10.570;2022-08-01T01:21:47;17.58;;;15.68;;
14778;SDS011;7481;53.750;10.570;2022-08-01T01:24:38;15.10;;;13.50;;
14778;SDS011;7481;53.750;10.570;2022-08-01T01:27:57;18.25;;;14.65;;
14778;SDS011;7481;53.750;10.570;2022-08-01T01:30:58;18.25;;;13.80;;
14778;SDS011;7481;53.750;10.570;2022-08-01T01:33:46;23.45;;;14.73;;
14778;SDS011;7481;53.750;10.570;2022-08-01T01:36:36;15.65;;;13.05;;
14778;SDS011;7481;53.750;10.570;2022-08-01T01:39:25;13.73;;;11.85;;
14778;SDS011;7481;53.750;10.570;2022-08-01T01:42:15;19.10;;;13.90;;
14778;SDS011;7481;53.750;10.570;2022-08-01T01:45:04;15.07;;;12.80;;
14778;SDS011;7481;53.750;10.570;2022-08-01T01:47:52;15.00;;;12.43;;
14778;SDS011;7481;53.750;10.570;2022-08-01T01:50:40;16.60;;;12.40;;
14778;SDS011;7481;53.750;10.570;2022-08-01T01:53:31;16.88;;;12.15;;
14778;SDS011;7481;53.750;10.570;2022-08-01T01:56:21;13.82;;;11.25;;
14778;SDS011;7481;53.750;10.570;2022-08-01T01:59:10;17.67;;;11.63;;
14778;SDS011;7481;53.750;10.570;2022-08-01T02:01:59;15.00;;;10.88;;
14778;SDS011;7481;53.750;10.570;2022-08-01T02:04:52;15.00;;;11.15;;
14778;SDS011;7481;53.750;10.570;2022-08-01T02:07:40;15.05;;;10.55;;
14778;SDS011;7481;53.750;10.570;2022-08-01T02:10:28;11.80;;;8.88;;
14778;SDS011;7481;53.750;10.570;2022-08-01T02:13:16;13.30;;;9.43;;
14778;SDS011;7481;53.750;10.570;2022-08-01T02:16:06;13.68;;;9.00;;
14778;SDS011;7481;53.750;10.570;2022-08-01T02:18:57;10.80;;;9.70;;
14778;SDS011;7481;53.750;10.570;2022-08-01T02:22:06;15.07;;;10.93;;
14778;SDS011;7481;53.750;10.570;2022-08-01T02:25:02;16.90;;;10.90;;
14778;SDS011;7481;53.750;10.570;2022-08-01T02:28:04;16.75;;;11.20;;
14778;SDS011;7481;53.750;10.570;2022-08-01T02:30:56;15.13;;;11.13;;
14778;SDS011;7481;53.750;10.570;2022-08-01T02:33:55;16.95;;;11.32;;
14778;SDS011;7481;53.750;10.570;2022-08-01T02:36:48;19.00;;;12.35;;
14778;SDS011;7481;53.750;10.570;2022-08-01T02:39:37;18.40;;;13.00;;
14778;SDS011;7481;53.750;10.570;2022-08-01T02:42:25;20.25;;;13.50;;
14778;SDS011;7481;53.750;10.570;2022-08-01T02:45:14;17.60;;;14.35;;
14778;SDS011;7481;53.750;10.570;2022-08-01T02:48:06;17.88;;;12.27;;
14778;SDS011;7481;53.750;10.570;2022-08-01T02:50:57;17.55;;;12.93;;
14778;SDS011;7481;53.750;10.570;2022-08-01T02:53:50;16.73;;;12.68;;
14778;SDS011;7481;53.750;10.570;2022-08-01T02:56:39;16.88;;;12.93;;
14778;SDS011;7481;53.750;10.570;2022-08-01T02:59:28;16.35;;;12.90;;
14778;SDS011;7481;53.750;10.570;2022-08-01T03:02:19;17.60;;;13.57;;
14778;SDS011;7481;53.750;10.570;2022-08-01T03:05:09;16.10;;;12.77;;
14778;SDS011;7481;53.750;10.570;2022-08-01T03:07:58;18.70;;;13.38;;
14778;SDS011;7481;53.750;10.570;2022-08-01T03:10:49;16.73;;;13.15;;
14778;SDS011;7481;53.750;10.570;2022-08-01T03:13:38;15.20;;;11.30;;
14778;SDS011;7481;53.750;10.570;2022-08-01T03:16:28;17.15;;;11.38;;
14778;SDS011;7481;53.750;10.570;2022-08-01T03:19:18;13.95;;;11.27;;
14778;SDS011;7481;53.750;10.570;2022-08-01T03:22:07;15.45;;;12.88;;
14778;SDS011;7481;53.750;10.570;2022-08-01T03:24:56;18.50;;;12.35;;
14778;SDS011;7481;53.750;10.570;2022-08-01T03:27:45;18.75;;;13.88;;
14778;SDS011;7481;53.750;10.570;2022-08-01T03:30:36;14.63;;;12.60;;
14778;SDS011;7481;53.750;10.570;2022-08-01T03:33:25;15.90;;;14.20;;
14778;SDS011;7481;53.750;10.570;2022-08-01T03:36:12;16.35;;;12.75;;
14778;SDS011;7481;53.750;10.570;2022-08-01T03:39:02;16.75;;;14.98;;
14778;SDS011;7481;53.750;10.570;2022-08-01T03:41:54;18.92;;;13.23;;
14778;SDS011;7481;53.750;10.570;2022-08-01T03:44:47;21.30;;;14.02;;
14778;SDS011;7481;53.750;10.570;2022-08-01T03:47:45;18.90;;;13.27;;
14778;SDS011;7481;53.750;10.570;2022-08-01T03:50:38;17.95;;;13.88;;
14778;SDS011;7481;53.750;10.570;2022-08-01T03:53:30;17.13;;;12.82;;
14778;SDS011;7481;53.750;10.570;2022-08-01T03:56:18;16.88;;;13.35;;
14778;SDS011;7481;53.750;10.570;2022-08-01T03:59:07;20.05;;;13.98;;
14778;SDS011;7481;53.750;10.570;2022-08-01T04:01:55;14.75;;;12.73;;
14778;SDS011;7481;53.750;10.570;2022-08-01T04:04:43;16.55;;;11.95;;
14778;SDS011;7481;53.750;10.570;2022-08-01T04:07:32;18.65;;;13.32;;
14778;SDS011;7481;53.750;10.570;2022-08-01T04:10:23;16.92;;;12.40;;
14778;SDS011;7481;53.750;10.570;2022-08-01T04:13:11;16.50;;;12.65;;
14778;SDS011;7481;53.750;10.570;2022-08-01T04:15:59;21.25;;;13.77;;
14778;SDS011;7481;53.750;10.570;2022-08-01T04:18:46;16.25;;;13.57;;
14778;SDS011;7481;53.750;10.570;2022-08-01T04:21:33;18.88;;;13.48;;
14778;SDS011;7481;53.750;10.570;2022-08-01T04:24:22;20.05;;;12.85;;
14778;SDS011;7481;53.750;10.570;2022-08-01T04:27:11;16.15;;;14.32;;
14778;SDS011;7481;53.750;10.570;2022-08-01T04:30:01;16.05;;;13.93;;
14778;SDS011;7481;53.750;10.570;2022-08-01T04:32:49;14.85;;;13.02;;
14778;SDS011;7481;53.750;10.570;2022-08-01T04:35:39;15.95;;;13.57;;
14778;SDS011;7481;53.750;10.570;2022-08-01T04:38:48;15.57;;;13.27;;
14778;SDS011;7481;53.750;10.570;2022-08-01T04:41:39;12.48;;;11.27;;
14778;SDS011;7481;53.750;10.570;2022-08-01T04:44:27;20.00;;;12.00;;
14778;SDS011;7481;53.750;10.570;2022-08-01T04:47:18;15.68;;;11.88;;
14778;SDS011;7481;53.750;10.570;2022-08-01T04:50:06;11.85;;;9.55;;
14778;SDS011;7481;53.750;10.570;2022-08-01T04:52:53;16.13;;;10.60;;
14778;SDS011;7481;53.750;10.570;2022-08-01T04:55:40;12.52;;;9.93;;
14778;SDS011;7481;53.750;10.570;2022-08-01T04:58:27;10.45;;;9.35;;
14778;SDS011;7481;53.750;10.570;2022-08-01T05:01:14;12.93;;;8.88;;
14778;SDS011;7481;53.750;10.570;2022-08-01T05:04:02;10.07;;;8.65;;
14778;SDS011;7481;53.750;10.570;2022-08-01T05:06:49;8.73;;;7.82;;
14778;SDS011;7481;53.750;10.570;2022-08-01T05:09:36;10.82;;;8.23;;
14778;SDS011;7481;53.750;10.570;2022-08-01T05:12:23;11.75;;;7.90;;
14778;SDS011;7481;53.750;10.570;2022-08-01T05:15:11;8.02;;;7.00;;
14778;SDS011;7481;53.750;10.570;2022-08-01T05:18:01;8.35;;;7.32;;
14778;SDS011;7481;53.750;10.570;2022-08-01T05:20:48;8.93;;;7.75;;
14778;SDS011;7481;53.750;10.570;2022-08-01T05:23:35;9.82;;;8.07;;
14778;SDS011;7481;53.750;10.570;2022-08-01T05:26:28;6.18;;;5.50;;
14778;SDS011;7481;53.750;10.570;2022-08-01T05:29:17;5.63;;;5.13;;
14778;SDS011;7481;53.750;10.570;2022-08-01T05:32:04;6.95;;;5.55;;
14778;SDS011;7481;53.750;10.570;2022-08-01T05:34:52;7.68;;;4.82;;
14778;SDS011;7481;53.750;10.570;2022-08-01T05:37:39;7.18;;;5.07;;
14778;SDS011;7481;53.750;10.570;2022-08-01T05:40:26;9.15;;;4.82;;
14778;SDS011;7481;53.750;10.570;2022-08-01T05:43:13;7.15;;;5.88;;
14778;SDS011;7481;53.750;10.570;2022-08-01T05:46:00;11.90;;;4.65;;
14778;SDS011;7481;53.750;10.570;2022-08-01T05:48:47;6.38;;;5.18;;
14778;SDS011;7481;53.750;10.570;2022-08-01T05:51:34;5.28;;;4.78;;
14778;SDS011;7481;53.750;10.570;2022-08-01T05:54:21;4.70;;;4.20;;
14778;SDS011;7481;53.750;10.570;2022-08-01T05:57:08;6.03;;;4.60;;
14778;SDS011;7481;53.750;10.570;2022-08-01T05:59:57;3.75;;;3.45;;
14778;SDS011;7481;53.750;10.570;2022-08-01T06:02:44;4.13;;;3.72;;
14778;SDS011;7481;53.750;10.570;2022-08-01T06:05:31;6.30;;;4.72;;
14778;SDS011;7481;53.750;10.570;2022-08-01T06:08:18;4.85;;;4.38;;
14778;SDS011;7481;53.750;10.570;2022-08-01T06:11:05;4.70;;;4.30;;
14778;SDS011;7481;53.750;10.570;2022-08-01T06:13:52;6.53;;;4.35;;
14778;SDS011;7481;53.750;10.570;2022-08-01T06:16:40;9.02;;;5.13;;
14778;SDS011;7481;53.750;10.570;2022-08-01T06:19:27;5.53;;;4.25;;
14778;SDS011;7481;53.750;10.570;2022-08-01T06:22:14;6.40;;;4.90;;
14778;SDS011;7481;53.750;10.570;2022-08-01T06:25:01;4.40;;;3.80;;
14778;SDS011;7481;53.750;10.570;2022-08-01T06:27:48;4.38;;;3.63;;
14778;SDS011;7481;53.750;10.570;2022-08-01T06:30:35;4.70;;;3.78;;
14778;SDS011;7481;53.750;10.570;2022-08-01T06:33:23;6.22;;;4.13;;
14778;SDS011;7481;53.750;10.570;2022-08-01T06:36:10;6.78;;;4.05;;
14778;SDS011;7481;53.750;10.570;2022-08-01T06:38:57;5.63;;;3.95;;
14778;SDS011;7481;53.750;10.570;2022-08-01T06:41:44;4.65;;;3.80;;
14778;SDS011;7481;53.750;10.570;2022-08-01T06:44:33;4.85;;;4.05;;
14778;SDS011;7481;53.750;10.570;2022-08-01T06:47:20;5.32;;;3.65;;
14778;SDS011;7481;53.750;10.570;2022-08-01T06:50:08;4.82;;;3.90;;
14778;SDS011;7481;53.750;10.570;2022-08-01T06:52:57;4.57;;;3.97;;
14778;SDS011;7481;53.750;10.570;2022-08-01T06:55:44;6.28;;;4.07;;
14778;SDS011;7481;53.750;10.570;2022-08-01T06:58:31;5.53;;;3.80;;
14778;SDS011;7481;53.750;10.570;2022-08-01T07:01:18;7.95;;;4.65;;
14778;SDS011;7481;53.750;10.570;2022-08-01T07:04:05;4.85;;;3.88;;
14778;SDS011;7481;53.750;10.570;2022-08-01T07:06:52;5.25;;;3.95;;
14778;SDS011;7481;53.750;10.570;2022-08-01T07:09:39;6.38;;;4.28;;
14778;SDS011;7481;53.750;10.570;2022-08-01T07:12:28;5.93;;;3.95;;
14778;SDS011;7481;53.750;10.570;2022-08-01T07:15:15;4.32;;;3.88;;
14778;SDS011;7481;53.750;10.570;2022-08-01T07:18:02;6.53;;;4.53;;
14778;SDS011;7481;53.750;10.570;2022-08-01T07:20:51;5.70;;;4.57;;
14778;SDS011;7481;53.750;10.570;2022-08-01T07:23:38;7.63;;;4.72;;
14778;SDS011;7481;53.750;10.570;2022-08-01T07:26:31;4.90;;;4.45;;
14778;SDS011;7481;53.750;10.570;2022-08-01T07:29:18;5.15;;;4.35;;
14778;SDS011;7481;53.750;10.570;2022-08-01T07:32:05;6.53;;;5.03;;
14778;SDS011;7481;53.750;10.570;2022-08-01T07:34:53;7.30;;;4.40;;
14778;SDS011;7481;53.750;10.570;2022-08-01T07:37:40;6.43;;;4.25;;
14778;SDS011;7481;53.750;10.570;2022-08-01T07:40:34;6.20;;;4.20;;
14778;SDS011;7481;53.750;10.570;2022-08-01T07:43:21;8.48;;;4.90;;
14778;SDS011;7481;53.750;10.570;2022-08-01T07:46:08;7.13;;;4.93;;
14778;SDS011;7481;53.750;10.570;2022-08-01T07:48:55;8.82;;;4.90;;
14778;SDS011;7481;53.750;10.570;2022-08-01T07:51:43;6.30;;;4.43;;
14778;SDS011;7481;53.750;10.570;2022-08-01T07:54:49;6.35;;;4.57;;
14778;SDS011;7481;53.750;10.570;2022-08-01T07:57:37;4.20;;;3.72;;
14778;SDS011;7481;53.750;10.570;2022-08-01T08:00:25;5.65;;;3.67;;
14778;SDS011;7481;53.750;10.570;2022-08-01T08:03:13;5.55;;;3.80;;
14778;SDS011;7481;53.750;10.570;2022-08-01T08:06:00;5.97;;;3.75;;
14778;SDS011;7481;53.750;10.570;2022-08-01T08:08:47;4.30;;;3.70;;
14778;SDS011;7481;53.750;10.570;2022-08-01T08:11:34;4.85;;;3.72;;
14778;SDS011;7481;53.750;10.570;2022-08-01T08:14:21;5.38;;;3.55;;
14778;SDS011;7481;53.750;10.570;2022-08-01T08:17:18;4.88;;;4.38;;
14778;SDS011;7481;53.750;10.570;2022-08-01T08:20:05;5.15;;;4.10;;
14778;SDS011;7481;53.750;10.570;2022-08-01T08:22:55;6.10;;;4.75;;
14778;SDS011;7481;53.750;10.570;2022-08-01T08:25:45;7.03;;;4.70;;
14778;SDS011;7481;53.750;10.570;2022-08-01T08:28:32;5.65;;;4.20;;
14778;SDS011;7481;53.750;10.570;2022-08-01T08:31:19;4.85;;;3.30;;
14778;SDS011;7481;53.750;10.570;2022-08-01T08:34:26;5.93;;;3.85;;
14778;SDS011;7481;53.750;10.570;2022-08-01T08:37:14;4.85;;;4.15;;
14778;SDS011;7481;53.750;10.570;2022-08-01T08:40:02;5.47;;;4.32;;
14778;SDS011;7481;53.750;10.570;2022-08-01T08:42:50;6.28;;;4.10;;
14778;SDS011;7481;53.750;10.570;2022-08-01T08:45:37;5.75;;;4.10;;
14778;SDS011;7481;53.750;10.570;2022-08-01T08:48:45;6.15;;;3.15;;
14778;SDS011;7481;53.750;10.570;2022-08-01T08:51:32;4.10;;;2.75;;
14778;SDS011;7481;53.750;10.570;2022-08-01T08:54:24;3.00;;;2.80;;
14778;SDS011;7481;53.750;10.570;2022-08-01T08:57:18;5.65;;;3.42;;
14778;SDS011;7481;53.750;10.570;2022-08-01T09:00:06;6.00;;;3.42;;
14778;SDS011;7481;53.750;10.570;2022-08-01T09:02:55;5.30;;;3.25;;
14778;SDS011;7481;53.750;10.570;2022-08-01T09:05:42;3.40;;;3.08;;
14778;SDS011;7481;53.750;10.570;2022-08-01T09:08:30;3.58;;;3.00;;
14778;SDS011;7481;53.750;10.570;2022-08-01T09:11:18;6.22;;;3.42;;
14778;SDS011;7481;53.750;10.570;2022-08-01T09:14:13;4.38;;;3.05;;
14778;SDS011;7481;53.750;10.570;2022-08-01T09:17:03;3.53;;;3.10;;
14778;SDS011;7481;53.750;10.570;2022-08-01T09:19:55;4.95;;;3.67;;
14778;SDS011;7481;53.750;10.570;2022-08-01T09:22:44;6.95;;;4.20;;
14778;SDS011;7481;53.750;10.570;2022-08-01T09:25:49;8.32;;;5.00;;
14778;SDS011;7481;53.750;10.570;2022-08-01T09:28:38;5.47;;;4.45;;
14778;SDS011;7481;53.750;10.570;2022-08-01T09:31:40;11.30;;;4.60;;
14778;SDS011;7481;53.750;10.570;2022-08-01T09:34:33;5.15;;;3.60;;
14778;SDS011;7481;53.750;10.570;2022-08-01T09:37:22;6.82;;;4.30;;
14778;SDS011;7481;53.750;10.570;2022-08-01T09:40:23;7.38;;;4.20;;
14778;SDS011;7481;53.750;10.570;2022-08-01T09:43:10;8.38;;;3.70;;
14778;SDS011;7481;53.750;10.570;2022-08-01T09:46:04;7.25;;;4.28;;
14778;SDS011;7481;53.750;10.570;2022-08-01T09:49:02;4.85;;;3.47;;
14778;SDS011;7481;53.750;10.570;2022-08-01T09:51:56;8.20;;;4.22;;
14778;SDS011;7481;53.750;10.570;2022-08-01T09:54:54;5.88;;;3.67;;
14778;SDS011;7481;53.750;10.570;2022-08-01T09:57:54;6.28;;;3.53;;
14778;SDS011;7481;53.750;10.570;2022-08-01T10:00:41;6.93;;;2.95;;
14778;SDS011;7481;53.750;10.570;2022-08-01T10:03:31;3.92;;;2.50;;
14778;SDS011;7481;53.750;10.570;2022-08-01T10:06:20;7.13;;;3.13;;
14778;SDS011;7481;53.750;10.570;2022-08-01T10:09:11;3.92;;;2.55;;
14778;SDS011;7481;53.750;10.570;2022-08-01T10:12:01;4.00;;;2.67;;
14778;SDS011;7481;53.750;10.570;2022-08-01T10:14:49;6.25;;;3.22;;
14778;SDS011;7481;53.750;10.570;2022-08-01T10:17:38;3.30;;;2.22;;
14778;SDS011;7481;53.750;10.570;2022-08-01T10:20:36;4.63;;;2.78;;
14778;SDS011;7481;53.750;10.570;2022-08-01T10:23:27;6.00;;;2.55;;
14778;SDS011;7481;53.750;10.570;2022-08-01T10:26:26;3.55;;;2.40;;
14778;SDS011;7481;53.750;10.570;2022-08-01T10:29:19;5.30;;;2.33;;
14778;SDS011;7481;53.750;10.570;2022-08-01T10:32:27;4.93;;;2.50;;
14778;SDS011;7481;53.750;10.570;2022-08-01T10:35:14;6.50;;;2.50;;
14778;SDS011;7481;53.750;10.570;2022-08-01T10:38:23;5.32;;;2.47;;
14778;SDS011;7481;53.750;10.570;2022-08-01T10:41:10;7.40;;;2.92;;
14778;SDS011;7481;53.750;10.570;2022-08-01T10:44:01;4.50;;;2.28;;
14778;SDS011;7481;53.750;10.570;2022-08-01T10:46:50;6.00;;;2.70;;
14778;SDS011;7481;53.750;10.570;2022-08-01T10:49:45;6.63;;;2.45;;
14778;SDS011;7481;53.750;10.570;2022-08-01T10:52:35;7.35;;;2.40;;
14778;SDS011;7481;53.750;10.570;2022-08-01T10:55:25;6.32;;;2.80;;
14778;SDS011;7481;53.750;10.570;2022-08-01T10:58:12;7.55;;;2.38;;
14778;SDS011;7481;53.750;10.570;2022-08-01T11:04:12;5.30;;;2.22;;
14778;SDS011;7481;53.750;10.570;2022-08-01T11:07:07;7.38;;;2.55;;
14778;SDS011;7481;53.750;10.570;2022-08-01T11:10:03;4.97;;;2.28;;
14778;SDS011;7481;53.750;10.570;2022-08-01T11:13:00;5.90;;;2.22;;
14778;SDS011;7481;53.750;10.570;2022-08-01T11:15:49;5.20;;;2.15;;
14778;SDS011;7481;53.750;10.570;2022-08-01T11:19:03;5.32;;;2.17;;
14778;SDS011;7481;53.750;10.570;2022-08-01T11:27:36;6.25;;;2.75;;
14778;SDS011;7481;53.750;10.570;2022-08-01T11:30:25;5.93;;;2.60;;
14778;SDS011;7481;53.750;10.570;2022-08-01T11:33:13;6.72;;;2.63;;
14778;SDS011;7481;53.750;10.570;2022-08-01T11:41:47;8.50;;;2.42;;
14778;SDS011;7481;53.750;10.570;2022-08-01T11:44:47;6.05;;;2.38;;
14778;SDS011;7481;53.750;10.570;2022-08-01T11:47:45;3.35;;;2.05;;
14778;SDS011;7481;53.750;10.570;2022-08-01T11:50:37;3.88;;;1.88;;
14778;SDS011;7481;53.750;10.570;2022-08-01T11:53:24;5.50;;;2.20;;
14778;SDS011;7481;53.750;10.570;2022-08-01T11:56:12;6.30;;;2.03;;
14778;SDS011;7481;53.750;10.570;2022-08-01T11:59:03;6.75;;;2.55;;
14778;SDS011;7481;53.750;10.570;2022-08-01T12:02:00;5.40;;;2.30;;
14778;SDS011;7481;53.750;10.570;2022-08-01T12:04:51;5.13;;;2.00;;
14778;SDS011;7481;53.750;10.570;2022-08-01T12:07:41;6.00;;;2.28;;
14778;SDS011;7481;53.750;10.570;2022-08-01T12:10:30;4.05;;;2.13;;
14778;SDS011;7481;53.750;10.570;2022-08-01T12:13:41;7.45;;;2.45;;
14778;SDS011;7481;53.750;10.570;2022-08-01T12:16:29;4.65;;;2.40;;
14778;SDS011;7481;53.750;10.570;2022-08-01T12:19:19;6.97;;;2.50;;
14778;SDS011;7481;53.750;10.570;2022-08-01T12:22:11;5.47;;;2.20;;
14778;SDS011;7481;53.750;10.570;2022-08-01T12:25:15;4.60;;;2.50;;
14778;SDS011;7481;53.750;10.570;2022-08-01T12:28:05;6.15;;;2.40;;
14778;SDS011;7481;53.750;10.570;2022-08-01T12:30:53;4.45;;;2.05;;
14778;SDS011;7481;53.750;10.570;2022-08-01T12:33:40;4.78;;;2.00;;
14778;SDS011;7481;53.750;10.570;2022-08-01T12:36:28;4.70;;;2.15;;
14778;SDS011;7481;53.750;10.570;2022-08-01T12:39:16;5.78;;;2.17;;
14778;SDS011;7481;53.750;10.570;2022-08-01T12:42:07;5.32;;;2.10;;
14778;SDS011;7481;53.750;10.570;2022-08-01T12:44:57;5.82;;;2.10;;
14778;SDS011;7481;53.750;10.570;2022-08-01T12:47:44;6.28;;;2.00;;
14778;SDS011;7481;53.750;10.570;2022-08-01T12:50:32;6.78;;;2.08;;
14778;SDS011;7481;53.750;10.570;2022-08-01T12:53:20;7.78;;;2.30;;
14778;SDS011;7481;53.750;10.570;2022-08-01T12:56:08;4.95;;;2.05;;
14778;SDS011;7481;53.750;10.570;2022-08-01T12:58:57;8.90;;;2.53;;
14778;SDS011;7481;53.750;10.570;2022-08-01T13:01:45;5.78;;;2.38;;
14778;SDS011;7481;53.750;10.570;2022-08-01T13:04:33;7.35;;;2.53;;
14778;SDS011;7481;53.750;10.570;2022-08-01T13:07:40;7.13;;;2.17;;
14778;SDS011;7481;53.750;10.570;2022-08-01T13:10:31;4.70;;;1.90;;
14778;SDS011;7481;53.750;10.570;2022-08-01T13:13:19;5.43;;;2.20;;
14778;SDS011;7481;53.750;10.570;2022-08-01T13:16:16;6.45;;;2.20;;
14778;SDS011;7481;53.750;10.570;2022-08-01T13:19:43;4.28;;;2.03;;
14778;SDS011;7481;53.750;10.570;2022-08-01T13:22:35;5.38;;;2.15;;
14778;SDS011;7481;53.750;10.570;2022-08-01T13:25:23;7.38;;;2.22;;
14778;SDS011;7481;53.750;10.570;2022-08-01T13:28:16;6.38;;;2.30;;
14778;SDS011;7481;53.750;10.570;2022-08-01T13:31:08;6.43;;;2.40;;
14778;SDS011;7481;53.750;10.570;2022-08-01T13:33:56;6.32;;;2.05;;
14778;SDS011;7481;53.750;10.570;2022-08-01T13:36:46;5.93;;;2.08;;
14778;SDS011;7481;53.750;10.570;2022-08-01T13:39:35;7.25;;;2.28;;
14778;SDS011;7481;53.750;10.570;2022-08-01T13:42:28;4.95;;;1.85;;
14778;SDS011;7481;53.750;10.570;2022-08-01T13:45:16;5.88;;;2.20;;
14778;SDS011;7481;53.750;10.570;2022-08-01T13:48:07;3.83;;;1.77;;
14778;SDS011;7481;53.750;10.570;2022-08-01T13:51:04;7.70;;;2.40;;
14778;SDS011;7481;53.750;10.570;2022-08-01T13:54:07;4.50;;;2.10;;
14778;SDS011;7481;53.750;10.570;2022-08-01T13:56:54;4.68;;;1.80;;
14778;SDS011;7481;53.750;10.570;2022-08-01T13:59:42;5.45;;;2.00;;
14778;SDS011;7481;53.750;10.570;2022-08-01T14:02:29;6.68;;;2.20;;
14778;SDS011;7481;53.750;10.570;2022-08-01T14:05:15;4.18;;;2.10;;
14778;SDS011;7481;53.750;10.570;2022-08-01T14:08:03;3.80;;;2.00;;
14778;SDS011;7481;53.750;10.570;2022-08-01T14:10:50;9.35;;;2.42;;
14778;SDS011;7481;53.750;10.570;2022-08-01T14:13:38;5.28;;;2.33;;
14778;SDS011;7481;53.750;10.570;2022-08-01T14:16:32;7.05;;;2.20;;
14778;SDS011;7481;53.750;10.570;2022-08-01T14:19:19;4.70;;;1.98;;
14778;SDS011;7481;53.750;10.570;2022-08-01T14:22:24;6.28;;;2.20;;
14778;SDS011;7481;53.750;10.570;2022-08-01T14:25:11;4.90;;;2.22;;
14778;SDS011;7481;53.750;10.570;2022-08-01T14:28:09;5.25;;;2.35;;
14778;SDS011;7481;53.750;10.570;2022-08-01T14:30:56;4.70;;;1.75;;
14778;SDS011;7481;53.750;10.570;2022-08-01T14:33:44;5.68;;;2.10;;
14778;SDS011;7481;53.750;10.570;2022-08-01T14:36:31;5.47;;;2.05;;
14778;SDS011;7481;53.750;10.570;2022-08-01T14:39:24;6.90;;;2.08;;
14778;SDS011;7481;53.750;10.570;2022-08-01T14:42:11;5.05;;;2.35;;
14778;SDS011;7481;53.750;10.570;2022-08-01T14:44:58;7.50;;;2.30;;
14778;SDS011;7481;53.750;10.570;2022-08-01T14:47:45;4.60;;;2.17;;
14778;SDS011;7481;53.750;10.570;2022-08-01T14:50:32;4.82;;;2.20;;
14778;SDS011;7481;53.750;10.570;2022-08-01T14:53:19;6.45;;;2.30;;
14778;SDS011;7481;53.750;10.570;2022-08-01T14:56:07;5.50;;;2.25;;
14778;SDS011;7481;53.750;10.570;2022-08-01T14:58:54;5.22;;;1.83;;
14778;SDS011;7481;53.750;10.570;2022-08-01T15:01:41;3.83;;;1.80;;
14778;SDS011;7481;53.750;10.570;2022-08-01T15:04:28;3.80;;;1.80;;
14778;SDS011;7481;53.750;10.570;2022-08-01T15:07:17;7.75;;;1.73;;
14778;SDS011;7481;53.750;10.570;2022-08-01T15:10:05;4.50;;;1.90;;
14778;SDS011;7481;53.750;10.570;2022-08-01T15:12:52;3.75;;;1.70;;
14778;SDS011;7481;53.750;10.570;2022-08-01T15:15:39;5.72;;;2.15;;
14778;SDS011;7481;53.750;10.570;2022-08-01T15:18:27;4.97;;;2.25;;
14778;SDS011;7481;53.750;10.570;2022-08-01T15:21:14;7.90;;;2.00;;
14778;SDS011;7481;53.750;10.570;2022-08-01T15:24:21;3.65;;;1.73;;
14778;SDS011;7481;53.750;10.570;2022-08-01T15:27:08;8.82;;;2.03;;
14778;SDS011;7481;53.750;10.570;2022-08-01T15:29:56;4.22;;;1.73;;
14778;SDS011;7481;53.750;10.570;2022-08-01T15:32:43;6.93;;;1.88;;
14778;SDS011;7481;53.750;10.570;2022-08-01T15:35:30;4.07;;;1.90;;
14778;SDS011;7481;53.750;10.570;2022-08-01T15:38:17;5.75;;;2.00;;
14778;SDS011;7481;53.750;10.570;2022-08-01T15:41:05;5.32;;;2.25;;
14778;SDS011;7481;53.750;10.570;2022-08-01T15:43:52;5.65;;;2.00;;
14778;SDS011;7481;53.750;10.570;2022-08-01T15:46:41;4.35;;;1.95;;
14778;SDS011;7481;53.750;10.570;2022-08-01T15:49:28;6.28;;;1.95;;
14778;SDS011;7481;53.750;10.570;2022-08-01T15:52:15;3.58;;;2.05;;
14778;SDS011;7481;53.750;10.570;2022-08-01T15:55:08;5.00;;;2.05;;
14778;SDS011;7481;53.750;10.570;2022-08-01T15:57:55;6.50;;;2.40;;
14778;SDS011;7481;53.750;10.570;2022-08-01T16:00:42;6.22;;;2.13;;
14778;SDS011;7481;53.750;10.570;2022-08-01T16:03:29;5.63;;;2.22;;
14778;SDS011;7481;53.750;10.570;2022-08-01T16:06:16;5.10;;;2.08;;
14778;SDS011;7481;53.750;10.570;2022-08-01T16:09:04;5.70;;;2.03;;
14778;SDS011;7481;53.750;10.570;2022-08-01T16:11:51;6.03;;;1.88;;
14778;SDS011;7481;53.750;10.570;2022-08-01T16:14:38;4.15;;;2.08;;
14778;SDS011;7481;53.750;10.570;2022-08-01T16:17:25;8.68;;;2.33;;
14778;SDS011;7481;53.750;10.570;2022-08-01T16:20:12;4.63;;;2.05;;
14778;SDS011;7481;53.750;10.570;2022-08-01T16:23:00;5.40;;;2.10;;
14778;SDS011;7481;53.750;10.570;2022-08-01T16:25:47;3.90;;;2.10;;
14778;SDS011;7481;53.750;10.570;2022-08-01T16:28:34;7.57;;;2.35;;
14778;SDS011;7481;53.750;10.570;2022-08-01T16:31:21;4.68;;;1.92;;
14778;SDS011;7481;53.750;10.570;2022-08-01T16:34:27;4.03;;;1.95;;
14778;SDS011;7481;53.750;10.570;2022-08-01T16:37:14;6.60;;;1.90;;
14778;SDS011;7481;53.750;10.570;2022-08-01T16:40:02;5.95;;;2.03;;
14778;SDS011;7481;53.750;10.570;2022-08-01T16:42:49;3.78;;;1.80;;
14778;SDS011;7481;53.750;10.570;2022-08-01T16:45:36;6.47;;;2.05;;
14778;SDS011;7481;53.750;10.570;2022-08-01T16:48:28;2.83;;;1.80;;
14778;SDS011;7481;53.750;10.570;2022-08-01T16:51:15;7.65;;;2.15;;
14778;SDS011;7481;53.750;10.570;2022-08-01T16:54:02;5.32;;;2.25;;
14778;SDS011;7481;53.750;10.570;2022-08-01T16:57:09;7.47;;;2.15;;
14778;SDS011;7481;53.750;10.570;2022-08-01T16:59:57;2.42;;;1.90;;
14778;SDS011;7481;53.750;10.570;2022-08-01T17:02:44;4.50;;;2.28;;
14778;SDS011;7481;53.750;10.570;2022-08-01T17:05:31;4.93;;;2.20;;
14778;SDS011;7481;53.750;10.570;2022-08-01T17:08:19;5.22;;;2.13;;
14778;SDS011;7481;53.750;10.570;2022-08-01T17:11:06;8.43;;;2.50;;
14778;SDS011;7481;53.750;10.570;2022-08-01T17:13:53;5.35;;;2.40;;
14778;SDS011;7481;53.750;10.570;2022-08-01T17:16:40;7.05;;;2.25;;